Overview Statistics Trail Chart Weather Telemetry Raw packets
 

This is the latest recevied weather packets stored in our database for station/object LU4EGV-13. If no packets are shown the sender has not sent any weather packets the latest 10 day(s).

<< 16 17 18 19 20 21 22 >>
Time Temp. Humidity Pressure Rain* Wind** Luminosity Snow
1788429384 12.22° C 95% 1010.4 hPa 0 mm - - -
1788428786 11.67° C 95% 1007.8 hPa 0 mm - - -
1788428172 11.67° C 95% 1007.1 hPa 0 mm - - -
1788427566 11.67° C 95% 1007.2 hPa 0 mm - - -
1788426966 11.67° C 95% 1008.1 hPa 0 mm - - -
1788426355 11.67° C 95% 1007.8 hPa 0 mm - - -
1788425747 11.67° C 94% 1009 hPa 0 mm - - -
1788425141 11.67° C 93% 1007.9 hPa 0 mm - - -
1788424536 11.67° C 93% 1006.8 hPa 0 mm - - -
1788423929 11.67° C 93% 1007 hPa 0 mm - - -
1788423322 11.67° C 93% 1007.9 hPa 0 mm - - -
1788422719 11.67° C 93% 1007.8 hPa 0 mm - - -
1788422110 12.22° C 91% 1008.5 hPa 0 mm - - -
1788421504 12.22° C 90% 1008.3 hPa 0 mm - - -
1788420898 12.78° C 89% 1008.5 hPa 0 mm - - -
1788420292 12.78° C 88% 1008.3 hPa 0 mm - - -
1788419685 13.33° C 84% 1008.1 hPa 0 mm - - -
1788419079 13.33° C 83% 1008.1 hPa 0 mm - - -
1788418473 13.89° C 80% 1008 hPa 0 mm - - -
1788417867 14.44° C 75% 1008.5 hPa 0 mm - - -
1788417261 14.44° C 73% 1008.2 hPa 0 mm - - -
1788416654 15° C 70% 1007.6 hPa 0 mm - - -
1788416050 15° C 70% 1008.1 hPa 0 mm - - -
1788415450 15.56° C 68% 1008.2 hPa - - - -
1788415323 15.56° C 67% 1008.2 hPa - - - -

* Rain latest hour (hover to see other rain measurements)
** Current wind speed in m/s (hover to see current wind gust speed)